Airfield :
LOGIN :

Register | Disclaimer

   EN    FR    IT 

 










Legend :    VFR   Marginal VFR   IFR   Intensive IFR   Very Intensive IFR
Visi :
Ceiling :
>= 8 km
>= 3000ft
5 to 8 km
1000 to 3000 ft
1500m to 5 km
500 to 1000 ft
800 to 1500m
200 to 500 ft
< 800m
< 200 ft
Symbols :   Thunderstorms  Fog  Heavy snow  Heavy precipitations  Wind > 20 kt
SIGMETs :     Misc.  Thunderstorms  Icing  Turbulence  Mountain Waves  Volcanic Ashes






- Airport Elevation : 240 ft
- IATA code : VLC


LEVC - Valencia Manises

CURRENT METAR :
  • 220100Z 32005KT 9999 FEW030 SCT060 18/14 Q1016 NOSIG

EXPIRED METARs :
  • 220030Z 32004KT 9999 FEW030 SCT060 18/14 Q1017 NOSIG
  • 220000Z 32006KT 9999 FEW030 18/14 Q1017 NOSIG
  • 212330Z 32006KT 9999 FEW030 18/15 Q1017 NOSIG
  • 212300Z 32005KT 9999 FEW030 18/15 Q1017 NOSIG
  • 212230Z 32005KT 9999 FEW030 18/15 Q1017 NOSIG

TAF TAF LEVC
Valid from the 22 at 00:00 until the 23 at 00:00 UTC


212300Z 2200/2224 VRB04KT 9999 FEW030 TX20/2212Z TN13/2206Z
TEMPO 2204/2208 03010KT
TEMPO 2212/2216 05010KT
PROB40
TEMPO 2206/2219 SHRA FEW040TCU
PROB30
TEMPO 2210/2214 4000 TSRA FEW040CB



MET'MAP, your aeronautical weather chart ! - Copyright ORBIFLY December 2007 - Disclaimer

ORBIFLY MET'MAP TEAM :

Programming & Development : Alexandra Zaïnal
Concept & original design : Baudouin d'Aumeries
Assistance for programming : Marc-Olivier Méhu
Technical & hardware support : Manuel Goepfert

Contact : metmap@orbifly.com




SOURCES & CREDITS :

   NOAA